createdAt,value
2023-04-08T00:00:02.414Z,81.63
2023-04-08T00:15:01.792Z,81.63
2023-04-08T00:30:02.249Z,81.63
2023-04-08T00:45:02.083Z,81.63
2023-04-08T01:00:02.325Z,81.63
2023-04-08T01:15:01.689Z,81.63
2023-04-08T01:30:01.912Z,81.63
2023-04-08T01:45:02.229Z,81.63
2023-04-08T02:00:02.382Z,81.63
2023-04-08T02:15:02.893Z,81.63
2023-04-08T02:30:01.487Z,81.63
2023-04-08T02:45:01.775Z,81.63
2023-04-08T03:00:02.336Z,81.63
2023-04-08T03:15:01.362Z,81.63
2023-04-08T03:30:01.752Z,121.66
2023-04-08T03:45:02.581Z,123.2
2023-04-08T04:00:01.670Z,123.72
2023-04-08T04:15:01.273Z,122.96
2023-04-08T04:30:01.916Z,123.12
2023-04-08T04:45:02.929Z,123.85
2023-04-08T05:00:03.982Z,124.9
2023-04-08T05:15:01.363Z,124.66
2023-04-08T05:30:01.924Z,125.22
2023-04-08T05:45:02.932Z,126.11
2023-04-08T06:00:01.998Z,125.71
2023-04-08T06:15:01.278Z,122.87
2023-04-08T06:30:01.943Z,123.12
2023-04-08T06:45:02.898Z,122.23
2023-04-08T07:00:01.989Z,122.87
2023-04-08T07:15:01.385Z,122.96
2023-04-08T07:30:02.138Z,120.12
2023-04-08T07:45:03.010Z,115.83
2023-04-08T08:00:02.121Z,110.81
2023-04-08T08:15:01.551Z,105.11
2023-04-08T08:30:01.911Z,105.7
2023-04-08T08:45:02.192Z,105.7
2023-04-08T09:00:02.755Z,105.7
2023-04-08T09:15:03.159Z,105.7
2023-04-08T09:30:01.553Z,105.7
2023-04-08T09:45:02.131Z,105.7
2023-04-08T10:00:02.639Z,105.7
2023-04-08T10:15:03.190Z,105.7
2023-04-08T10:30:01.513Z,105.7
2023-04-08T10:45:02.049Z,105.7
2023-04-08T11:00:02.672Z,105.7
2023-04-08T11:15:01.627Z,105.7
2023-04-08T11:30:01.987Z,105.7
2023-04-08T11:45:01.653Z,116.16
2023-04-08T12:00:02.271Z,118.95
2023-04-08T12:15:01.668Z,120.12
2023-04-08T12:30:02.571Z,119.7
2023-04-08T12:45:01.572Z,118.26
2023-04-08T13:00:02.544Z,118.58
2023-04-08T13:15:01.615Z,118.83
2023-04-08T13:30:02.624Z,119.72
2023-04-08T13:45:02.237Z,120.4
2023-04-08T14:00:01.888Z,120.4
2023-04-08T14:15:02.403Z,120.4
2023-04-08T14:30:01.351Z,120.4
2023-04-08T14:45:01.741Z,120.4
2023-04-08T15:00:02.061Z,120.4
2023-04-08T15:15:02.357Z,120.4
2023-04-08T15:30:01.389Z,120.4
2023-04-08T15:45:01.713Z,120.4
2023-04-08T16:00:02.182Z,120.4
2023-04-08T16:15:02.393Z,120.4
2023-04-08T16:30:02.981Z,120.4
2023-04-08T16:45:01.519Z,120.4
2023-04-08T17:00:01.901Z,120.4
2023-04-08T17:15:02.309Z,120.4
2023-04-08T17:30:02.067Z,124.49
2023-04-08T17:45:02.602Z,124.49
2023-04-08T18:00:03.128Z,124.49
2023-04-08T18:15:03.047Z,127.41
2023-04-08T18:30:01.530Z,127.81
2023-04-08T18:45:02.524Z,128.18
2023-04-08T19:00:02.217Z,128.34
2023-04-08T19:15:02.628Z,128.34
2023-04-08T19:30:01.361Z,128.34
2023-04-08T19:45:02.820Z,128.34
2023-04-08T20:00:02.087Z,128.34
2023-04-08T20:15:02.635Z,128.34
2023-04-08T20:30:01.540Z,128.34
2023-04-08T20:45:01.832Z,128.34
2023-04-08T21:00:02.174Z,128.34
2023-04-08T21:15:02.682Z,128.34
2023-04-08T21:30:03.201Z,128.34
2023-04-08T21:45:01.590Z,128.34
2023-04-08T22:00:02.135Z,128.34
2023-04-08T22:15:02.707Z,128.34
2023-04-08T22:30:01.975Z,128.34
2023-04-08T22:45:01.512Z,128.34
2023-04-08T23:00:03.493Z,128.34
2023-04-08T23:15:02.609Z,128.34
2023-04-08T23:30:01.568Z,128.34
2023-04-08T23:45:01.797Z,128.34
